Time;durP1;ratioP1;P1;durP2;ratioP2;P2;SDS_P1;SDS_P2;PMS_P1;PMS_P2;Temp;Humidity;BMP_temperature;BMP_pressure;BME280_temperature;BME280_humidity;BME280_pressure;Samples;Min_cycle;Max_cycle;Signal;HPM_P1;HPM_P2
2024/02/15 00:02:00;;;;;;;5.65;3.20;;;;;;;13.92;64.55;100336.91;4139868;28;20050;-73
2024/02/15 00:04:00;;;;;;;6.65;3.20;;;;;;;14.01;64.55;100330.59;4141421;28;20377;-73
2024/02/15 00:06:01;;;;;;;;;;;;;;;14.02;64.38;100329.59;4140790;28;20025;-73
2024/02/15 00:08:01;;;;;;;5.25;2.97;;;;;;;13.93;64.74;100330.53;4141282;28;20007;-73
2024/02/15 00:10:03;;;;;;;5.13;2.67;;;;;;;13.92;64.66;100326.16;4140916;28;20060;-72
2024/02/15 00:12:04;;;;;;;6.43;4.10;;;;;;;13.84;65.07;100326.94;4140969;28;20076;-73
2024/02/15 00:14:04;;;;;;;7.05;3.50;;;;;;;13.86;64.58;100320.44;4135609;28;20473;-72
2024/02/15 00:16:05;;;;;;;5.75;3.40;;;;;;;13.96;64.63;100309.56;4141781;28;20039;-73
2024/02/15 00:18:05;;;;;;;5.53;3.05;;;;;;;13.96;64.53;100320.31;4141668;28;20026;-72
2024/02/15 00:20:09;;;;;;;5.50;3.38;;;;;;;13.91;64.40;100313.72;4141613;28;20371;-72
2024/02/15 00:22:09;;;;;;;6.32;2.90;;;;;;;13.85;64.70;100318.75;4147871;28;20025;-72
2024/02/15 00:24:10;;;;;;;6.15;3.50;;;;;;;13.73;64.98;100320.03;4141965;28;20138;-73
2024/02/15 00:26:11;;;;;;;7.88;3.50;;;;;;;13.72;65.22;100312.97;4144749;28;20100;-73
2024/02/15 00:28:12;;;;;;;5.25;3.13;;;;;;;13.67;65.07;100316.13;4142293;28;20098;-72
2024/02/15 00:30:13;;;;;;;4.97;2.97;;;;;;;13.73;64.90;100312.81;4139278;28;20029;-72
2024/02/15 00:32:13;;;;;;;5.40;2.97;;;;;;;13.66;65.44;100313.59;4133429;28;20073;-72
2024/02/15 00:34:14;;;;;;;5.60;3.20;;;;;;;13.53;65.38;100317.53;4138875;28;20573;-71
2024/02/15 00:36:14;;;;;;;5.00;2.95;;;;;;;13.54;65.40;100305.81;4140771;28;20034;-72
2024/02/15 00:38:15;;;;;;;5.72;2.80;;;;;;;13.48;65.76;100309.13;4145800;28;20072;-72
2024/02/15 00:40:15;;;;;;;5.85;2.90;;;;;;;13.52;65.74;100318.53;4147298;28;20113;-72
2024/02/15 00:42:16;;;;;;;5.65;2.80;;;;;;;13.57;65.57;100315.38;4145680;28;20080;-73
2024/02/15 00:44:17;;;;;;;5.35;2.92;;;;;;;13.64;65.26;100312.91;4145431;28;20033;-72
2024/02/15 00:46:18;;;;;;;5.10;2.83;;;;;;;13.63;65.02;100319.28;4138843;28;20026;-73
2024/02/15 00:48:18;;;;;;;5.75;2.78;;;;;;;13.70;64.94;100314.94;4148696;28;20505;-72
2024/02/15 00:50:18;;;;;;;6.10;2.38;;;;;;;13.66;64.91;100310.91;4154755;28;20140;-72
2024/02/15 00:52:19;;;;;;;4.40;2.70;;;;;;;13.65;64.92;100311.91;4148265;28;20161;-72
2024/02/15 00:54:19;;;;;;;4.93;2.70;;;;;;;13.66;64.99;100308.22;4146736;28;20045;-71
2024/02/15 00:56:20;;;;;;;4.43;2.20;;;;;;;13.68;65.16;100319.66;4144135;28;20505;-72
2024/02/15 00:58:21;;;;;;;5.20;2.38;;;;;;;13.66;64.93;100316.28;4142080;28;20065;-72
2024/02/15 01:00:22;;;;;;;5.13;2.80;;;;;;;13.68;65.09;100314.28;4136734;28;20038;-74
2024/02/15 01:02:23;;;;;;;4.40;2.33;;;;;;;13.78;64.71;100315.03;4138792;28;20051;-72
2024/02/15 01:04:24;;;;;;;5.30;2.83;;;;;;;13.72;64.69;100318.34;4138672;28;20509;-72
2024/02/15 01:06:24;;;;;;;6.72;2.75;;;;;;;13.66;64.88;100316.28;4138951;28;20022;-72
2024/02/15 01:08:24;;;;;;;5.25;2.78;;;;;;;13.66;65.01;100308.22;4138828;28;20053;-73
2024/02/15 01:10:25;;;;;;;5.65;2.50;;;;;;;13.60;65.14;100315.06;4136170;28;20528;-73
2024/02/15 01:12:26;;;;;;;4.68;2.40;;;;;;;13.62;64.94;100304.16;4138854;28;20026;-72
2024/02/15 01:14:30;;;;;;;5.07;2.88;;;;;;;13.71;64.59;100305.91;4138640;28;20019;-72
2024/02/15 01:16:30;;;;;;;4.80;2.70;;;;;;;13.70;64.79;100306.91;4145715;28;20053;-73
2024/02/15 01:18:31;;;;;;;4.38;2.15;;;;;;;13.63;64.74;100305.84;4139041;28;20421;-72
2024/02/15 01:20:32;;;;;;;6.18;2.17;;;;;;;13.68;64.59;100311.59;4139160;28;20037;-72
2024/02/15 01:22:32;;;;;;;4.50;2.00;;;;;;;13.64;64.82;100308.41;4138466;28;20026;-73
2024/02/15 01:24:32;;;;;;;4.45;2.20;;;;;;;13.68;64.44;100298.19;4139021;28;20087;-72
2024/02/15 01:26:34;;;;;;;3.88;2.00;;;;;;;13.65;64.80;100303.84;4138367;28;20077;-73
2024/02/15 01:28:34;;;;;;;4.65;2.53;;;;;;;13.71;64.74;100301.38;4137367;28;20041;-73
2024/02/15 01:30:35;;;;;;;4.47;2.15;;;;;;;13.68;64.73;100299.00;4138327;28;20026;-72
2024/02/15 01:32:36;;;;;;;4.15;2.00;;;;;;;13.73;64.61;100295.84;4137668;28;20030;-73
2024/02/15 01:34:36;;;;;;;4.63;2.00;;;;;;;13.69;64.67;100299.88;4138465;28;20017;-73
2024/02/15 01:36:37;;;;;;;4.63;2.25;;;;;;;13.65;64.75;100295.78;4138453;28;20160;-72
2024/02/15 01:38:37;;;;;;;6.93;2.40;;;;;;;13.51;64.84;100298.03;4131500;28;20026;-72
2024/02/15 01:40:38;;;;;;;6.50;2.85;;;;;;;13.35;65.57;100295.22;4137247;28;20474;-72
2024/02/15 01:42:39;;;;;;;6.18;2.42;;;;;;;13.34;65.58;100294.41;4138379;28;20501;-73
2024/02/15 01:44:49;;;;;;;4.65;2.22;;;;;;;13.33;65.54;100297.22;4131376;28;20053;-73
2024/02/15 01:46:53;;;;;;;5.50;2.17;;;;;;;13.36;65.64;100296.91;4145438;28;20030;-73
2024/02/15 01:48:54;;;;;;;4.18;2.25;;;;;;;13.32;65.57;100295.56;4146309;28;20028;-73
2024/02/15 01:50:54;;;;;;;3.90;1.80;;;;;;;13.30;65.64;100292.19;4146444;28;20030;-72
2024/02/15 01:52:57;;;;;;;4.70;2.05;;;;;;;13.38;65.35;100295.75;4145359;28;20394;-72
2024/02/15 01:55:00;;;;;;;5.15;1.92;;;;;;;13.37;65.45;100301.28;4146606;28;20021;-72
2024/02/15 01:57:00;;;;;;;6.10;2.90;;;;;;;13.44;65.09;100301.53;4147372;28;20029;-72
2024/02/15 01:59:01;;;;;;;5.13;2.00;;;;;;;13.46;64.89;100299.56;4146981;28;20049;-71
2024/02/15 02:01:02;;;;;;;3.90;1.80;;;;;;;13.47;65.07;100303.91;4140108;28;20030;-73
2024/02/15 02:03:03;;;;;;;;;;;;;;;13.47;64.81;100302.06;4136965;28;20055;-73
2024/02/15 02:05:03;;;;;;;3.77;1.63;;;;;;;13.42;65.02;100299.00;4139186;28;19917;-73
2024/02/15 02:07:04;;;;;;;3.90;1.88;;;;;;;13.34;65.31;100298.91;4142284;28;20031;-73
2024/02/15 02:09:04;;;;;;;5.00;1.98;;;;;;;13.36;65.26;100305.84;4143374;28;20422;-73
2024/02/15 02:11:06;;;;;;;4.97;2.22;;;;;;;13.41;65.04;100300.03;4144057;28;20030;-73
2024/02/15 02:13:06;;;;;;;4.38;1.88;;;;;;;13.35;65.28;100297.91;4157305;28;20034;-72
2024/02/15 02:15:07;;;;;;;5.20;2.20;;;;;;;13.35;65.33;100295.22;4154516;28;20049;-72
2024/02/15 02:17:12;;;;;;;;;;;;;;;13.26;65.54;100305.91;4152270;28;20029;-72
2024/02/15 02:19:12;;;;;;;4.28;2.25;;;;;;;13.35;65.14;100296.09;4149374;28;19916;-72
2024/02/15 02:21:13;;;;;;;4.45;2.13;;;;;;;13.33;65.22;100289.16;4137187;28;20026;-73
2024/02/15 02:23:15;;;;;;;4.25;1.92;;;;;;;13.29;65.27;100295.88;4155682;28;20030;-72
2024/02/15 02:25:16;;;;;;;5.80;2.03;;;;;;;13.20;65.55;100292.25;4156018;28;20098;-72
2024/02/15 02:27:18;;;;;;;;;;;;;;;13.22;65.88;100287.59;4162165;28;20032;-73
2024/02/15 02:29:18;;;;;;;7.18;3.55;;;;;;;13.21;65.42;100284.06;4147702;28;19910;-73
2024/02/15 02:31:20;;;;;;;5.00;2.25;;;;;;;13.18;65.53;100283.50;4153698;28;20109;-72
2024/02/15 02:33:23;;;;;;;5.53;1.88;;;;;;;13.11;65.88;100292.19;4144942;28;20057;-72
2024/02/15 02:35:23;;;;;;;3.95;1.70;;;;;;;13.14;65.83;100284.84;4133143;28;20030;-72
2024/02/15 02:37:24;;;;;;;4.85;1.90;;;;;;;13.18;65.68;100279.00;4132646;28;20122;-73
2024/02/15 02:39:26;;;;;;;4.05;1.70;;;;;;;13.21;65.77;100289.44;4133560;28;20026;-72
2024/02/15 02:41:28;;;;;;;4.13;1.77;;;;;;;13.22;65.46;100283.06;4160911;28;20028;-73
2024/02/15 02:43:28;;;;;;;4.93;2.28;;;;;;;13.23;65.53;100286.59;4164810;28;20083;-72
2024/02/15 02:45:28;;;;;;;4.22;2.20;;;;;;;13.14;65.95;100291.03;4148767;28;20022;-72
2024/02/15 02:47:29;;;;;;;4.53;2.13;;;;;;;13.21;65.76;100285.91;4134188;28;20026;-72
2024/02/15 02:49:29;;;;;;;3.92;1.65;;;;;;;13.21;65.67;100291.25;4141744;28;20025;-73
2024/02/15 02:51:30;;;;;;;4.90;2.72;;;;;;;13.17;65.85;100282.69;4159085;28;20044;-72
2024/02/15 02:53:30;;;;;;;5.10;3.08;;;;;;;13.12;66.17;100285.00;4162738;28;20025;-72
2024/02/15 02:55:31;;;;;;;6.22;3.88;;;;;;;13.11;65.97;100283.31;4132724;28;20026;-74
2024/02/15 02:57:31;;;;;;;6.68;4.07;;;;;;;13.17;66.15;100280.00;4132399;28;20026;-73
2024/02/15 02:59:35;;;;;;;6.80;3.70;;;;;;;13.19;66.05;100286.06;4132759;28;20062;-73
2024/02/15 03:01:35;;;;;;;5.68;3.45;;;;;;;13.25;65.67;100290.81;4139956;28;20101;-72
2024/02/15 03:03:39;;;;;;;6.32;3.67;;;;;;;13.32;65.72;100284.81;4140579;28;20049;-73
2024/02/15 03:05:41;;;;;;;6.20;2.97;;;;;;;13.38;65.20;100285.00;4132610;28;20034;-72
2024/02/15 03:07:41;;;;;;;4.50;2.45;;;;;;;13.40;65.29;100288.41;4132336;28;20153;-72
2024/02/15 03:09:42;;;;;;;4.57;2.50;;;;;;;13.49;64.91;100281.28;4139924;28;20066;-72
2024/02/15 03:11:43;;;;;;;5.05;2.25;;;;;;;13.53;64.92;100285.31;4140307;28;20688;-72
2024/02/15 03:13:44;;;;;;;4.18;2.15;;;;;;;13.64;64.70;100275.31;4146258;28;20036;-73
2024/02/15 03:15:47;;;;;;;5.20;2.30;;;;;;;13.64;64.71;100273.47;4131767;28;20026;-72
2024/02/15 03:17:48;;;;;;;4.82;2.05;;;;;;;13.69;64.58;100275.69;4131900;28;20030;-73
2024/02/15 03:19:49;;;;;;;4.10;1.85;;;;;;;13.73;64.43;100277.03;4131914;28;20501;-73
2024/02/15 03:21:49;;;;;;;3.65;1.70;;;;;;;13.75;64.45;100274.19;4132511;28;20026;-72
2024/02/15 03:23:49;;;;;;;4.00;1.88;;;;;;;13.71;64.36;100274.50;4132322;28;20105;-73
2024/02/15 03:25:50;;;;;;;3.80;1.48;;;;;;;13.72;64.12;100275.34;4132025;28;20077;-72
2024/02/15 03:28:03;;;;;;;3.92;1.73;;;;;;;13.75;64.10;100269.66;4132093;28;20034;-73
2024/02/15 03:30:04;;;;;;;3.97;1.30;;;;;;;13.72;64.39;100270.84;4131498;28;20030;-73
2024/02/15 03:32:06;;;;;;;4.20;1.67;;;;;;;13.72;64.15;100269.97;4130850;28;20424;-73
2024/02/15 03:34:07;;;;;;;3.80;1.45;;;;;;;13.70;64.24;100271.97;4132049;28;20030;-72
2024/02/15 03:36:07;;;;;;;5.32;1.88;;;;;;;13.70;64.05;100267.47;4130667;28;20023;-73
2024/02/15 03:38:07;;;;;;;3.88;1.55;;;;;;;13.67;64.26;100257.03;4130310;28;20030;-72
2024/02/15 03:40:09;;;;;;;6.28;1.67;;;;;;;13.69;64.10;100265.75;4131283;28;20487;-72
2024/02/15 03:42:10;;;;;;;4.47;1.60;;;;;;;13.70;64.07;100263.91;4131929;28;20023;-73
2024/02/15 03:44:10;;;;;;;3.47;1.63;;;;;;;13.66;64.29;100266.06;4131879;28;20025;-72
2024/02/15 03:46:12;;;;;;;5.35;2.58;;;;;;;13.66;64.45;100270.63;4132026;28;20026;-72
2024/02/15 03:48:13;;;;;;;4.28;1.50;;;;;;;13.63;64.10;100265.56;4131002;28;20034;-73
2024/02/15 03:50:14;;;;;;;3.72;1.40;;;;;;;13.57;64.33;100270.56;4130565;28;20061;-72
2024/02/15 03:52:15;;;;;;;3.50;1.42;;;;;;;13.53;64.55;100269.19;4133702;28;20039;-73
2024/02/15 03:54:15;;;;;;;4.97;1.75;;;;;;;13.47;64.63;100277.91;4132881;28;20022;-72
2024/02/15 03:56:15;;;;;;;3.63;1.50;;;;;;;13.46;64.84;100276.22;4134623;28;20026;-72
2024/02/15 03:58:16;;;;;;;5.32;1.58;;;;;;;13.31;65.12;100272.41;4135930;28;20510;-72
2024/02/15 04:00:20;;;;;;;4.95;1.70;;;;;;;13.30;65.30;100270.72;4135122;28;20034;-72
2024/02/15 04:02:23;;;;;;;5.38;1.45;;;;;;;13.38;64.88;100273.44;4140639;28;20054;-72
2024/02/15 04:04:23;;;;;;;4.15;1.70;;;;;;;13.38;64.77;100276.97;4140721;28;20046;-72
2024/02/15 04:06:24;;;;;;;4.07;1.63;;;;;;;13.32;65.04;100268.72;4137259;28;20113;-73
2024/02/15 04:08:25;;;;;;;3.88;1.50;;;;;;;13.23;65.16;100276.69;4139755;28;20094;-72
2024/02/15 04:10:25;;;;;;;6.20;1.80;;;;;;;13.29;65.16;100272.53;4140813;28;20474;-72
2024/02/15 04:12:26;;;;;;;4.97;1.77;;;;;;;13.26;65.20;100271.00;4141126;28;20022;-72
2024/02/15 04:14:27;;;;;;;3.28;1.33;;;;;;;13.30;65.11;100273.38;4143754;28;20042;-72
2024/02/15 04:16:30;;;;;;;5.07;1.70;;;;;;;13.31;65.12;100273.22;4140718;28;20382;-73
2024/02/15 04:18:32;;;;;;;5.63;1.70;;;;;;;13.25;65.30;100280.06;4133365;28;20030;-72
2024/02/15 04:20:32;;;;;;;3.25;1.60;;;;;;;13.23;65.40;100279.38;4140456;28;20486;-72
2024/02/15 04:22:39;;;;;;;4.68;1.85;;;;;;;13.23;65.41;100283.91;4141657;28;20022;-72
2024/02/15 04:24:41;;;;;;;5.60;1.95;;;;;;;13.23;65.40;100284.72;4133498;28;20033;-73
2024/02/15 04:26:42;;;;;;;4.10;1.40;;;;;;;13.31;65.45;100286.66;4142161;28;20034;-72
2024/02/15 04:28:42;;;;;;;4.13;1.60;;;;;;;13.34;65.28;100283.66;4146822;28;20559;-72
2024/02/15 04:30:43;;;;;;;4.50;1.92;;;;;;;13.35;65.13;100273.75;4139424;28;20108;-72
2024/02/15 04:32:43;;;;;;;5.80;1.25;;;;;;;13.37;64.93;100283.31;4139158;28;20034;-72
2024/02/15 04:34:46;;;;;;;4.32;1.90;;;;;;;13.35;65.18;100273.75;4139106;28;20033;-72
2024/02/15 04:36:53;;;;;;;4.57;1.90;;;;;;;13.37;65.14;100274.44;4137589;28;20025;-72
2024/02/15 04:38:54;;;;;;;5.70;1.42;;;;;;;13.43;64.81;100279.19;4137418;28;20096;-75
2024/02/15 04:40:54;;;;;;;5.40;1.92;;;;;;;13.39;65.04;100273.31;4140106;28;20386;-72
2024/02/15 04:42:55;;;;;;;3.53;1.60;;;;;;;13.45;64.96;100279.91;4146089;28;20061;-73
2024/02/15 04:44:56;;;;;;;5.03;1.48;;;;;;;13.49;64.76;100275.91;4146832;28;20101;-72
2024/02/15 04:46:56;;;;;;;4.97;1.90;;;;;;;13.46;64.92;100270.00;4145940;28;20512;-72
2024/02/15 04:49:01;;;;;;;3.95;1.48;;;;;;;13.54;64.57;100272.75;4136351;28;20030;-71
2024/02/15 04:51:02;;;;;;;5.82;1.77;;;;;;;13.62;64.25;100271.94;4130503;28;20030;-72
2024/02/15 04:53:02;;;;;;;5.63;1.77;;;;;;;13.56;64.23;100271.56;4139211;28;20052;-72
2024/02/15 04:55:05;;;;;;;3.47;1.35;;;;;;;13.67;64.05;100261.56;4140948;28;20037;-72
2024/02/15 04:57:11;;;;;;;4.50;1.40;;;;;;;13.74;63.86;100273.34;4139529;28;20026;-71
2024/02/15 04:59:14;;;;;;;3.80;1.50;;;;;;;13.81;63.72;100260.13;4138374;28;20075;-72
2024/02/15 05:01:16;;;;;;;3.53;1.40;;;;;;;13.80;63.63;100264.63;4138535;28;20042;-72
2024/02/15 05:03:17;;;;;;;4.40;1.50;;;;;;;13.81;63.67;100270.88;4138338;28;20089;-72
2024/02/15 05:05:18;;;;;;;5.38;1.35;;;;;;;13.84;63.61;100267.84;4138718;28;20037;-72
2024/02/15 05:07:19;;;;;;;5.40;1.45;;;;;;;13.89;63.39;100271.72;4138838;28;20502;-71
2024/02/15 05:09:20;;;;;;;3.88;1.80;;;;;;;13.88;63.22;100267.38;4143329;28;20072;-73
2024/02/15 05:11:22;;;;;;;3.85;1.48;;;;;;;13.93;63.18;100266.03;4144923;28;20053;-72
2024/02/15 05:13:25;;;;;;;6.32;2.33;;;;;;;13.93;62.65;100266.03;4146467;28;20503;-71
2024/02/15 05:15:25;;;;;;;4.65;1.90;;;;;;;13.98;62.97;100264.56;4150029;28;20061;-72
2024/02/15 05:17:29;;;;;;;4.15;1.50;;;;;;;13.98;62.80;100259.19;4167555;28;20028;-72
2024/02/15 05:19:30;;;;;;;3.75;1.50;;;;;;;14.02;62.26;100259.69;4144611;28;20038;-73
2024/02/15 05:21:30;;;;;;;3.10;1.30;;;;;;;13.97;62.35;100256.66;4139268;28;20017;-71
2024/02/15 05:23:31;;;;;;;4.53;1.50;;;;;;;13.87;62.83;100263.00;4136531;28;20037;-73
2024/02/15 05:25:32;;;;;;;4.30;1.52;;;;;;;13.97;62.36;100251.28;4142784;28;20479;-72
2024/02/15 05:27:34;;;;;;;4.55;1.45;;;;;;;14.01;62.16;100252.63;4158105;28;20050;-72
2024/02/15 05:29:39;;;;;;;4.82;1.48;;;;;;;13.95;62.20;100248.75;4148711;28;20033;-71
2024/02/15 05:31:40;;;;;;;3.60;1.25;;;;;;;13.98;62.08;100255.66;4159750;28;20041;-72
2024/02/15 05:33:43;;;;;;;4.30;1.48;;;;;;;13.81;62.50;100252.88;4146808;28;20022;-72
2024/02/15 05:35:49;;;;;;;3.55;1.20;;;;;;;13.92;61.90;100250.91;4159544;28;20065;-72
2024/02/15 05:37:52;;;;;;;5.57;1.60;;;;;;;13.92;61.94;100250.91;4146199;28;20022;-72
2024/02/15 05:39:56;;;;;;;3.45;1.27;;;;;;;13.91;61.93;100251.91;4144563;28;20045;-73
2024/02/15 05:42:01;;;;;;;4.03;1.77;;;;;;;13.75;62.36;100253.53;4147250;28;20014;-72
2024/02/15 05:44:06;;;;;;;3.45;1.50;;;;;;;13.88;61.79;100253.94;4154897;28;20152;-71
2024/02/15 05:46:08;;;;;;;3.70;1.45;;;;;;;13.73;62.37;100261.78;4153162;28;20042;-72
2024/02/15 05:48:08;;;;;;;3.42;1.35;;;;;;;13.80;62.21;100256.56;4141290;28;20068;-72
2024/02/15 05:50:09;;;;;;;4.85;1.65;;;;;;;13.74;62.11;100249.16;4145090;28;20044;-71
2024/02/15 05:52:11;;;;;;;6.75;2.03;;;;;;;13.72;62.16;100260.09;4144801;28;20386;-72
2024/02/15 05:54:11;;;;;;;5.15;2.03;;;;;;;13.78;61.78;100255.06;4148622;28;20056;-71
2024/02/15 05:56:12;;;;;;;3.75;1.45;;;;;;;13.83;62.03;100250.88;4154943;28;20022;-72
2024/02/15 05:58:13;;;;;;;4.05;1.42;;;;;;;13.78;61.79;100250.53;4154217;28;20029;-72
2024/02/15 06:00:15;;;;;;;4.93;1.48;;;;;;;13.66;62.08;100255.31;4149421;28;20014;-72
2024/02/15 06:02:15;;;;;;;6.40;2.10;;;;;;;13.56;62.56;100250.09;4151698;28;20080;-72
2024/02/15 06:04:16;;;;;;;5.35;1.70;;;;;;;13.47;62.79;100244.81;4149543;28;20022;-72
2024/02/15 06:06:18;;;;;;;4.80;1.60;;;;;;;13.62;62.45;100253.97;4153766;28;20041;-71
2024/02/15 06:08:20;;;;;;;6.95;1.80;;;;;;;13.51;62.88;100248.88;4150272;28;20051;-72
2024/02/15 06:10:20;;;;;;;4.65;1.73;;;;;;;13.65;62.33;100252.81;4155712;28;20060;-73
2024/02/15 06:12:20;;;;;;;4.88;1.80;;;;;;;13.52;62.75;100246.03;4137257;28;20030;-71
2024/02/15 06:14:21;;;;;;;5.07;2.47;;;;;;;13.63;62.42;100254.81;4133927;28;20084;-71
2024/02/15 06:16:21;;;;;;;4.03;1.60;;;;;;;13.74;62.06;100251.84;4137598;28;20037;-71
2024/02/15 06:18:31;;;;;;;3.67;1.52;;;;;;;13.66;62.32;100254.50;4140994;28;20053;-71
2024/02/15 06:20:33;;;;;;;5.43;1.80;;;;;;;13.54;62.76;100260.16;4143253;28;20069;-71
2024/02/15 06:22:35;;;;;;;4.45;1.95;;;;;;;13.73;62.17;100260.91;4146045;28;20029;-71
2024/02/15 06:24:35;;;;;;;4.90;1.60;;;;;;;13.71;62.07;100258.41;4141692;28;20022;-72
2024/02/15 06:26:35;;;;;;;4.10;1.42;;;;;;;13.77;61.92;100262.28;4143863;28;20493;-71
2024/02/15 06:39:38;;;;;;;4.53;1.92;;;;;;;13.66;62.23;100268.75;4140530;28;20449;-72
2024/02/15 06:40:18;;;;;;;4.47;1.75;;;;;;;13.76;61.85;100271.34;4141969;28;20084;-71
2024/02/15 06:42:19;;;;;;;5.05;1.90;;;;;;;13.71;62.10;100270.97;4140903;28;20022;-71
2024/02/15 06:44:20;;;;;;;6.07;2.30;;;;;;;13.78;61.92;100261.28;4146634;28;20064;-71
2024/02/15 06:46:20;;;;;;;5.00;2.00;;;;;;;13.74;61.78;100262.59;4141312;28;20033;-72
2024/02/15 06:48:21;;;;;;;4.53;2.10;;;;;;;13.71;61.95;100268.28;4139934;28;20089;-71
2024/02/15 06:50:22;;;;;;;6.55;1.83;;;;;;;13.85;61.57;100261.47;4132771;28;20030;-74
2024/02/15 06:52:22;;;;;;;4.47;1.63;;;;;;;13.80;61.86;100256.56;4139741;28;20029;-72
2024/02/15 06:54:23;;;;;;;5.40;1.73;;;;;;;13.85;61.43;100259.63;4142186;28;20430;-72
2024/02/15 06:56:24;;;;;;;4.25;1.50;;;;;;;13.91;61.58;100263.53;4139636;28;20084;-73
2024/02/15 06:58:24;;;;;;;5.28;2.42;;;;;;;13.99;61.17;100255.50;4137998;28;20026;-72
2024/02/15 07:00:25;;;;;;;4.60;1.70;;;;;;;14.08;60.86;100261.72;4143818;28;20022;-73
2024/02/15 07:02:25;;;;;;;4.07;1.88;;;;;;;14.03;60.96;100261.38;4139395;28;20042;-72
2024/02/15 07:04:26;;;;;;;4.13;1.50;;;;;;;14.12;60.80;100260.41;4138642;28;20026;-73
2024/02/15 07:06:27;;;;;;;4.13;1.40;;;;;;;14.09;61.00;100259.91;4139791;28;20428;-73
2024/02/15 07:08:27;;;;;;;5.07;1.65;;;;;;;14.09;60.90;100258.03;4139652;28;20030;-72
2024/02/15 07:10:28;;;;;;;5.28;2.03;;;;;;;14.05;61.18;100256.69;4139242;28;20649;-74
2024/02/15 07:12:29;;;;;;;4.15;1.52;;;;;;;14.07;60.88;100257.38;4144089;28;20085;-73
2024/02/15 07:14:29;;;;;;;4.03;1.50;;;;;;;14.15;60.56;100252.03;4139688;28;20466;-72
2024/02/15 07:16:29;;;;;;;3.72;1.67;;;;;;;14.12;60.74;100246.13;4139151;28;20474;-73
2024/02/15 07:18:30;;;;;;;4.80;1.95;;;;;;;14.15;60.48;100246.66;4139494;28;20031;-73
2024/02/15 07:20:31;;;;;;;;;;;;;;;14.12;60.37;100248.84;4139651;28;20525;-72
2024/02/15 07:22:31;;;;;;;4.47;1.77;;;;;;;14.02;60.99;100243.56;4139201;28;19909;-72
2024/02/15 07:24:32;;;;;;;6.53;1.95;;;;;;;14.06;60.90;100242.25;4129622;28;20061;-74
2024/02/15 07:26:34;;;;;;;5.15;2.20;;;;;;;14.13;60.65;100239.72;4139015;28;20517;-73
2024/02/15 07:28:35;;;;;;;3.95;1.52;;;;;;;14.16;60.47;100232.22;4139381;28;20022;-72
2024/02/15 07:30:36;;;;;;;4.15;2.13;;;;;;;14.19;60.37;100225.66;4138787;28;20042;-72
2024/02/15 07:32:36;;;;;;;3.58;1.40;;;;;;;14.30;60.21;100229.88;4140841;28;20386;-73
2024/02/15 07:34:37;;;;;;;4.68;1.50;;;;;;;14.18;60.14;100229.34;4138902;28;20027;-73
2024/02/15 07:36:39;;;;;;;8.07;1.95;;;;;;;14.25;59.88;100229.53;4143103;28;20057;-73
2024/02/15 07:38:39;;;;;;;5.28;2.03;;;;;;;14.14;60.26;100226.16;4134825;28;20042;-73
2024/02/15 07:40:41;;;;;;;4.97;1.58;;;;;;;14.10;60.23;100226.63;4138984;28;20040;-72
2024/02/15 07:42:41;;;;;;;5.72;1.85;;;;;;;14.30;59.83;100219.13;4135117;28;20109;-73
2024/02/15 07:44:42;;;;;;;5.95;1.88;;;;;;;14.02;60.49;100222.06;4139166;28;20037;-72
2024/02/15 07:46:43;;;;;;;5.25;1.98;;;;;;;13.93;60.56;100223.91;4139224;28;20034;-72
2024/02/15 07:48:47;;;;;;;5.10;1.60;;;;;;;14.19;59.94;100223.78;4138631;28;20481;-73
2024/02/15 07:50:48;;;;;;;5.38;2.05;;;;;;;14.30;59.58;100219.13;4132502;28;20026;-73
2024/02/15 07:52:48;;;;;;;;;;;;;;;14.40;58.59;100225.19;4139159;28;20026;-72
2024/02/15 07:54:49;;;;;;;4.77;1.80;;;;;;;14.33;59.36;100222.31;4138599;28;20342;-72
2024/02/15 07:56:50;;;;;;;5.07;2.25;;;;;;;14.43;59.00;100224.88;4139281;28;20026;-72
2024/02/15 07:58:51;;;;;;;5.78;1.80;;;;;;;14.40;58.83;100209.06;4138737;28;20092;-73
2024/02/15 08:00:53;;;;;;;4.70;1.83;;;;;;;14.41;59.23;100210.75;4139192;28;20486;-72
2024/02/15 08:02:53;;;;;;;;;;;;;;;14.67;57.49;100204.41;4138366;28;20042;-73
2024/02/15 08:04:54;;;;;;;3.83;1.70;;;;;;;14.73;58.03;100208.28;4139213;28;19917;-72
2024/02/15 08:06:55;;;;;;;5.28;1.70;;;;;;;14.66;58.29;100208.06;4144301;28;20033;-72
2024/02/15 08:08:55;;;;;;;;;;;;;;;14.59;57.91;100207.91;4137114;28;20026;-73
2024/02/15 08:10:56;;;;;;;5.00;1.43;;;;;;;14.52;58.54;100201.50;4140117;28;19987;-73
2024/02/15 08:12:58;;;;;;;;;;;;;;;14.45;58.34;100203.19;4140726;28;20467;-72
2024/02/15 08:14:58;;;;;;;4.05;1.58;;;;;;;14.80;57.82;100204.75;4139415;28;19913;-73
2024/02/15 08:16:58;;;;;;;7.22;2.08;;;;;;;14.80;57.87;100198.50;4140322;28;20025;-73
2024/02/15 08:19:00;;;;;;;4.90;1.60;;;;;;;14.78;57.64;100204.06;4140059;28;20024;-72
2024/02/15 08:21:00;;;;;;;4.78;1.67;;;;;;;14.93;57.51;100198.84;4140194;28;20041;-72
2024/02/15 08:23:00;;;;;;;5.78;1.65;;;;;;;14.90;57.43;100198.34;4139920;28;20030;-72
2024/02/15 08:25:01;;;;;;;;;;;;;;;14.75;57.18;100195.50;4140586;28;20053;-72
2024/02/15 08:27:04;;;;;;;4.30;1.40;;;;;;;14.80;57.44;100204.75;4137896;28;19910;-72
2024/02/15 08:29:09;;;;;;;5.25;1.88;;;;;;;14.76;57.39;100203.38;4136844;28;20024;-72
2024/02/15 08:31:11;;;;;;;4.03;1.52;;;;;;;14.71;57.72;100196.81;4144929;28;20390;-72
2024/02/15 08:33:11;;;;;;;4.88;1.60;;;;;;;14.69;57.51;100198.88;4145379;28;20029;-72
2024/02/15 08:35:13;;;;;;;5.65;1.60;;;;;;;14.76;57.42;100203.38;4130766;28;20026;-72
2024/02/15 08:37:13;;;;;;;4.45;1.67;;;;;;;14.91;57.15;100197.34;4147888;28;20089;-71
2024/02/15 08:39:16;;;;;;;4.57;1.48;;;;;;;15.01;57.02;100195.31;4141468;28;20110;-73
2024/02/15 08:41:20;;;;;;;4.00;1.90;;;;;;;14.90;56.80;100198.34;4143027;28;20033;-72
2024/02/15 08:43:21;;;;;;;4.05;1.60;;;;;;;14.86;57.05;100186.22;4140381;28;20081;-72
2024/02/15 08:45:21;;;;;;;4.00;1.50;;;;;;;14.92;57.05;100197.16;4141266;28;20108;-73
2024/02/15 08:47:22;;;;;;;5.03;1.40;;;;;;;14.96;56.78;100197.66;4142975;28;20038;-72
2024/02/15 08:49:23;;;;;;;4.15;1.38;;;;;;;15.21;56.17;100192.25;4138076;28;20037;-73
2024/02/15 08:51:24;;;;;;;4.10;1.50;;;;;;;15.24;56.08;100194.59;4138330;28;20486;-72
2024/02/15 08:53:24;;;;;;;4.72;1.70;;;;;;;15.15;55.97;100195.63;4138198;28;20513;-71
2024/02/15 08:55:27;;;;;;;;;;;;;;;15.20;55.40;100204.88;4143957;28;20030;-71
2024/02/15 08:57:27;;;;;;;;;;;;;;;15.07;55.98;100200.00;4131641;28;19910;-71
2024/02/15 08:59:28;;;;;;;4.87;2.10;;;;;;;15.38;55.35;100187.66;4144543;28;19955;-72
2024/02/15 09:01:29;;;;;;;4.13;1.50;;;;;;;15.49;55.17;100192.66;4130229;28;20134;-72
2024/02/15 09:03:30;;;;;;;6.47;1.70;;;;;;;15.39;55.22;100190.19;4136553;28;20129;-72
2024/02/15 09:05:30;;;;;;;5.28;1.40;;;;;;;15.61;54.83;100187.75;4130075;28;20030;-72
2024/02/15 09:07:31;;;;;;;;;;;;;;;15.92;53.54;100188.84;4145418;28;20112;-72
2024/02/15 09:09:31;;;;;;;3.53;1.48;;;;;;;16.21;53.76;100196.25;4131526;28;20365;-72
2024/02/15 09:11:32;;;;;;;4.07;1.48;;;;;;;16.44;53.49;100190.84;4138039;28;20026;-72
2024/02/15 09:13:33;;;;;;;;;;;;;;;16.23;52.89;100188.81;4138310;28;20058;-72
2024/02/15 09:15:34;;;;;;;6.05;1.80;;;;;;;16.32;53.56;100187.75;4137899;28;19948;-72
2024/02/15 09:17:38;;;;;;;;;;;;;;;16.44;52.41;100184.59;4138560;28;20030;-72
2024/02/15 09:19:39;;;;;;;4.03;1.45;;;;;;;16.61;52.52;100175.41;4137956;28;20293;-73
2024/02/15 09:21:40;;;;;;;;;;;;;;;16.75;51.15;100172.91;4141470;28;20069;-72
2024/02/15 09:23:40;;;;;;;3.50;1.50;;;;;;;17.06;51.56;100174.69;4141382;28;19916;-72
2024/02/15 09:25:43;;;;;;;;;;;;;;;16.98;50.56;100176.44;4150351;28;20159;-71
2024/02/15 09:27:45;;;;;;;5.72;1.33;;;;;;;17.45;50.74;100173.59;4149827;28;19996;-71
2024/02/15 09:29:46;;;;;;;3.95;1.55;;;;;;;17.45;50.71;100169.00;4143622;28;20111;-72
2024/02/15 09:31:49;;;;;;;;;;;;;;;17.48;48.90;100165.09;4145267;28;20029;-72
2024/02/15 09:33:49;;;;;;;4.72;1.55;;;;;;;17.79;49.72;100172.16;4146420;28;19959;-75
2024/02/15 09:35:50;;;;;;;;;;;;;;;18.02;48.00;100165.78;4144182;28;20026;-72
2024/02/15 09:37:50;;;;;;;4.13;1.60;;;;;;;18.16;48.61;100161.38;4147020;28;19913;-72